sensor_id;sensor_type;location;lat;lon;timestamp;P1;P2;P0
72793;PMS5003;63436;26.334;50.194;2022-12-29T00:00:21;99;94;
72793;PMS5003;63436;26.334;50.194;2022-12-29T00:02:48;110;98;
72793;PMS5003;63436;26.334;50.194;2022-12-29T00:05:13;104;92;
72793;PMS5003;63436;26.334;50.194;2022-12-29T00:07:38;103;94;
72793;PMS5003;63436;26.334;50.194;2022-12-29T00:10:05;101;95;
72793;PMS5003;63436;26.334;50.194;2022-12-29T00:12:30;111;98;
72793;PMS5003;63436;26.334;50.194;2022-12-29T00:14:56;112;104;
72793;PMS5003;63436;26.334;50.194;2022-12-29T00:17:23;100;90;
72793;PMS5003;63436;26.334;50.194;2022-12-29T00:19:50;112;99;
72793;PMS5003;63436;26.334;50.194;2022-12-29T00:22:14;109;94;
72793;PMS5003;63436;26.334;50.194;2022-12-29T00:24:40;104;95;
72793;PMS5003;63436;26.334;50.194;2022-12-29T00:27:09;103;97;
72793;PMS5003;63436;26.334;50.194;2022-12-29T00:29:28;104;96;
72793;PMS5003;63436;26.334;50.194;2022-12-29T00:31:53;111;98;
72793;PMS5003;63436;26.334;50.194;2022-12-29T00:34:18;108;95;
72793;PMS5003;63436;26.334;50.194;2022-12-29T00:36:44;104;98;
72793;PMS5003;63436;26.334;50.194;2022-12-29T00:39:10;119;104;
72793;PMS5003;63436;26.334;50.194;2022-12-29T00:41:35;106;98;
72793;PMS5003;63436;26.334;50.194;2022-12-29T00:44:01;108;102;
72793;PMS5003;63436;26.334;50.194;2022-12-29T00:46:26;99;93;
72793;PMS5003;63436;26.334;50.194;2022-12-29T00:48:51;111;102;
72793;PMS5003;63436;26.334;50.194;2022-12-29T00:51:16;115;100;
72793;PMS5003;63436;26.334;50.194;2022-12-29T00:53:42;109;101;
72793;PMS5003;63436;26.334;50.194;2022-12-29T00:56:07;114;99;
72793;PMS5003;63436;26.334;50.194;2022-12-29T00:58:32;112;105;
72793;PMS5003;63436;26.334;50.194;2022-12-29T01:01:01;113;100;
72793;PMS5003;63436;26.334;50.194;2022-12-29T01:03:23;116;107;
72793;PMS5003;63436;26.334;50.194;2022-12-29T01:05:48;117;106;
72793;PMS5003;63436;26.334;50.194;2022-12-29T01:08:14;111;98;
72793;PMS5003;63436;26.334;50.194;2022-12-29T01:10:39;111;102;
72793;PMS5003;63436;26.334;50.194;2022-12-29T01:13:05;111;100;
72793;PMS5003;63436;26.334;50.194;2022-12-29T01:15:30;111;99;
72793;PMS5003;63436;26.334;50.194;2022-12-29T01:17:56;112;102;
72793;PMS5003;63436;26.334;50.194;2022-12-29T01:20:21;113;99;
72793;PMS5003;63436;26.334;50.194;2022-12-29T01:22:47;115;100;
72793;PMS5003;63436;26.334;50.194;2022-12-29T01:25:13;112;103;
72793;PMS5003;63436;26.334;50.194;2022-12-29T01:27:38;114;104;
72793;PMS5003;63436;26.334;50.194;2022-12-29T01:30:04;112;101;
72793;PMS5003;63436;26.334;50.194;2022-12-29T01:32:29;119;102;
72793;PMS5003;63436;26.334;50.194;2022-12-29T01:34:54;107;99;
72793;PMS5003;63436;26.334;50.194;2022-12-29T01:37:21;110;96;
72793;PMS5003;63436;26.334;50.194;2022-12-29T01:39:46;114;98;
72793;PMS5003;63436;26.334;50.194;2022-12-29T01:42:12;120;108;
72793;PMS5003;63436;26.334;50.194;2022-12-29T01:47:02;114;99;
72793;PMS5003;63436;26.334;50.194;2022-12-29T01:49:28;123;107;
72793;PMS5003;63436;26.334;50.194;2022-12-29T01:51:53;111;101;
72793;PMS5003;63436;26.334;50.194;2022-12-29T01:54:19;129;110;
72793;PMS5003;63436;26.334;50.194;2022-12-29T01:56:43;110;102;
72793;PMS5003;63436;26.334;50.194;2022-12-29T01:59:10;117;105;
72793;PMS5003;63436;26.334;50.194;2022-12-29T02:01:35;109;98;
72793;PMS5003;63436;26.334;50.194;2022-12-29T02:04:00;120;106;
72793;PMS5003;63436;26.334;50.194;2022-12-29T02:06:28;110;98;
72793;PMS5003;63436;26.334;50.194;2022-12-29T02:08:52;120;106;
72793;PMS5003;63436;26.334;50.194;2022-12-29T02:11:17;119;101;
72793;PMS5003;63436;26.334;50.194;2022-12-29T02:13:42;106;101;
72793;PMS5003;63436;26.334;50.194;2022-12-29T02:16:18;110;97;
72793;PMS5003;63436;26.334;50.194;2022-12-29T02:18:36;118;104;
72793;PMS5003;63436;26.334;50.194;2022-12-29T02:23:36;114;104;
72793;PMS5003;63436;26.334;50.194;2022-12-29T02:25:57;112;98;
72793;PMS5003;63436;26.334;50.194;2022-12-29T02:30:44;121;100;
72793;PMS5003;63436;26.334;50.194;2022-12-29T02:33:11;118;102;
72793;PMS5003;63436;26.334;50.194;2022-12-29T02:35:35;113;102;
72793;PMS5003;63436;26.334;50.194;2022-12-29T02:38:00;115;103;
72793;PMS5003;63436;26.334;50.194;2022-12-29T02:40:24;110;101;
72793;PMS5003;63436;26.334;50.194;2022-12-29T02:42:50;115;102;
72793;PMS5003;63436;26.334;50.194;2022-12-29T02:45:15;106;101;
72793;PMS5003;63436;26.334;50.194;2022-12-29T02:47:40;104;97;
72793;PMS5003;63436;26.334;50.194;2022-12-29T02:50:05;115;103;
72793;PMS5003;63436;26.334;50.194;2022-12-29T02:52:31;111;98;
72793;PMS5003;63436;26.334;50.194;2022-12-29T02:54:55;113;103;
72793;PMS5003;63436;26.334;50.194;2022-12-29T02:59:46;105;99;
72793;PMS5003;63436;26.334;50.194;2022-12-29T03:02:16;114;106;
72793;PMS5003;63436;26.334;50.194;2022-12-29T03:04:37;116;103;
72793;PMS5003;63436;26.334;50.194;2022-12-29T03:07:05;111;100;
72793;PMS5003;63436;26.334;50.194;2022-12-29T03:09:31;120;107;
72793;PMS5003;63436;26.334;50.194;2022-12-29T03:11:55;110;102;
72793;PMS5003;63436;26.334;50.194;2022-12-29T03:14:22;115;99;
72793;PMS5003;63436;26.334;50.194;2022-12-29T03:16:44;110;98;
72793;PMS5003;63436;26.334;50.194;2022-12-29T03:19:10;114;98;
72793;PMS5003;63436;26.334;50.194;2022-12-29T03:21:36;119;102;
72793;PMS5003;63436;26.334;50.194;2022-12-29T03:24:00;110;103;
72793;PMS5003;63436;26.334;50.194;2022-12-29T03:26:26;115;103;
72793;PMS5003;63436;26.334;50.194;2022-12-29T03:28:52;119;109;
72793;PMS5003;63436;26.334;50.194;2022-12-29T03:31:16;107;96;
72793;PMS5003;63436;26.334;50.194;2022-12-29T03:33:42;111;102;
72793;PMS5003;63436;26.334;50.194;2022-12-29T03:36:08;109;101;
72793;PMS5003;63436;26.334;50.194;2022-12-29T03:38:34;110;100;
72793;PMS5003;63436;26.334;50.194;2022-12-29T03:40:59;108;98;
72793;PMS5003;63436;26.334;50.194;2022-12-29T03:43:23;112;98;
72793;PMS5003;63436;26.334;50.194;2022-12-29T03:45:48;97;93;
72793;PMS5003;63436;26.334;50.194;2022-12-29T03:48:14;109;98;
72793;PMS5003;63436;26.334;50.194;2022-12-29T03:50:39;117;102;
72793;PMS5003;63436;26.334;50.194;2022-12-29T03:53:04;130;101;
72793;PMS5003;63436;26.334;50.194;2022-12-29T03:55:30;106;94;
72793;PMS5003;63436;26.334;50.194;2022-12-29T03:57:55;110;99;
72793;PMS5003;63436;26.334;50.194;2022-12-29T04:00:21;113;102;
72793;PMS5003;63436;26.334;50.194;2022-12-29T04:02:47;103;100;
72793;PMS5003;63436;26.334;50.194;2022-12-29T04:05:13;114;98;
72793;PMS5003;63436;26.334;50.194;2022-12-29T04:07:38;115;108;
72793;PMS5003;63436;26.334;50.194;2022-12-29T04:10:04;121;106;
72793;PMS5003;63436;26.334;50.194;2022-12-29T04:12:29;114;104;
72793;PMS5003;63436;26.334;50.194;2022-12-29T04:14:55;111;102;
72793;PMS5003;63436;26.334;50.194;2022-12-29T04:17:21;108;102;
72793;PMS5003;63436;26.334;50.194;2022-12-29T04:19:46;95;90;
72793;PMS5003;63436;26.334;50.194;2022-12-29T04:22:11;122;104;
72793;PMS5003;63436;26.334;50.194;2022-12-29T04:24:37;113;106;
72793;PMS5003;63436;26.334;50.194;2022-12-29T04:27:03;107;99;
72793;PMS5003;63436;26.334;50.194;2022-12-29T04:29:28;111;103;
72793;PMS5003;63436;26.334;50.194;2022-12-29T04:31:54;101;92;
72793;PMS5003;63436;26.334;50.194;2022-12-29T04:34:19;112;99;
72793;PMS5003;63436;26.334;50.194;2022-12-29T04:36:44;109;101;
72793;PMS5003;63436;26.334;50.194;2022-12-29T04:39:10;118;104;
72793;PMS5003;63436;26.334;50.194;2022-12-29T04:41:35;106;98;
72793;PMS5003;63436;26.334;50.194;2022-12-29T04:44:01;112;99;
72793;PMS5003;63436;26.334;50.194;2022-12-29T04:46:27;112;104;
72793;PMS5003;63436;26.334;50.194;2022-12-29T04:48:53;114;104;
72793;PMS5003;63436;26.334;50.194;2022-12-29T04:51:18;118;103;
72793;PMS5003;63436;26.334;50.194;2022-12-29T04:53:44;114;102;
72793;PMS5003;63436;26.334;50.194;2022-12-29T04:56:09;114;104;
72793;PMS5003;63436;26.334;50.194;2022-12-29T04:58:35;118;106;
72793;PMS5003;63436;26.334;50.194;2022-12-29T05:01:01;115;104;
72793;PMS5003;63436;26.334;50.194;2022-12-29T05:03:27;117;104;
72793;PMS5003;63436;26.334;50.194;2022-12-29T05:05:53;111;102;
72793;PMS5003;63436;26.334;50.194;2022-12-29T05:08:17;113;99;
72793;PMS5003;63436;26.334;50.194;2022-12-29T05:10:44;115;109;
72793;PMS5003;63436;26.334;50.194;2022-12-29T05:13:08;106;98;
72793;PMS5003;63436;26.334;50.194;2022-12-29T05:15:33;119;102;
72793;PMS5003;63436;26.334;50.194;2022-12-29T05:17:58;115;106;
72793;PMS5003;63436;26.334;50.194;2022-12-29T05:20:24;113;104;
72793;PMS5003;63436;26.334;50.194;2022-12-29T05:22:50;101;97;
72793;PMS5003;63436;26.334;50.194;2022-12-29T05:25:15;121;110;
72793;PMS5003;63436;26.334;50.194;2022-12-29T05:27:41;111;100;
72793;PMS5003;63436;26.334;50.194;2022-12-29T05:30:06;105;99;
72793;PMS5003;63436;26.334;50.194;2022-12-29T05:32:32;103;92;
72793;PMS5003;63436;26.334;50.194;2022-12-29T05:34:57;114;99;
72793;PMS5003;63436;26.334;50.194;2022-12-29T05:37:23;116;105;
72793;PMS5003;63436;26.334;50.194;2022-12-29T05:39:48;117;108;
72793;PMS5003;63436;26.334;50.194;2022-12-29T05:42:13;112;103;
72793;PMS5003;63436;26.334;50.194;2022-12-29T05:44:39;114;100;
72793;PMS5003;63436;26.334;50.194;2022-12-29T05:47:04;119;108;
72793;PMS5003;63436;26.334;50.194;2022-12-29T05:49:29;123;106;
72793;PMS5003;63436;26.334;50.194;2022-12-29T05:51:55;118;112;
72793;PMS5003;63436;26.334;50.194;2022-12-29T05:54:20;117;109;
72793;PMS5003;63436;26.334;50.194;2022-12-29T05:56:45;117;113;
72793;PMS5003;63436;26.334;50.194;2022-12-29T05:59:10;113;109;
72793;PMS5003;63436;26.334;50.194;2022-12-29T06:01:35;116;104;
72793;PMS5003;63436;26.334;50.194;2022-12-29T06:04:01;114;100;
72793;PMS5003;63436;26.334;50.194;2022-12-29T06:06:28;102;93;
72793;PMS5003;63436;26.334;50.194;2022-12-29T06:08:52;109;102;
72793;PMS5003;63436;26.334;50.194;2022-12-29T06:11:18;111;100;
72793;PMS5003;63436;26.334;50.194;2022-12-29T06:13:44;110;101;
72793;PMS5003;63436;26.334;50.194;2022-12-29T06:16:09;115;107;
72793;PMS5003;63436;26.334;50.194;2022-12-29T06:18:35;110;99;
72793;PMS5003;63436;26.334;50.194;2022-12-29T06:21:01;104;99;
72793;PMS5003;63436;26.334;50.194;2022-12-29T06:23:26;111;102;
72793;PMS5003;63436;26.334;50.194;2022-12-29T06:25:51;114;101;
72793;PMS5003;63436;26.334;50.194;2022-12-29T06:28:17;113;105;
72793;PMS5003;63436;26.334;50.194;2022-12-29T06:30:43;123;104;
72793;PMS5003;63436;26.334;50.194;2022-12-29T06:33:08;116;104;
72793;PMS5003;63436;26.334;50.194;2022-12-29T06:35:35;117;108;
72793;PMS5003;63436;26.334;50.194;2022-12-29T06:37:59;109;104;
72793;PMS5003;63436;26.334;50.194;2022-12-29T06:40:24;135;122;
72793;PMS5003;63436;26.334;50.194;2022-12-29T06:42:50;119;110;
72793;PMS5003;63436;26.334;50.194;2022-12-29T06:45:15;110;102;
72793;PMS5003;63436;26.334;50.194;2022-12-29T06:47:40;120;111;
72793;PMS5003;63436;26.334;50.194;2022-12-29T06:50:05;108;102;
72793;PMS5003;63436;26.334;50.194;2022-12-29T06:52:30;117;105;
72793;PMS5003;63436;26.334;50.194;2022-12-29T06:54:56;118;110;
72793;PMS5003;63436;26.334;50.194;2022-12-29T06:57:21;114;108;
72793;PMS5003;63436;26.334;50.194;2022-12-29T06:59:47;117;114;
72793;PMS5003;63436;26.334;50.194;2022-12-29T07:02:12;110;100;
72793;PMS5003;63436;26.334;50.194;2022-12-29T07:04:38;124;113;
72793;PMS5003;63436;26.334;50.194;2022-12-29T07:07:03;116;101;
72793;PMS5003;63436;26.334;50.194;2022-12-29T07:09:28;121;105;
72793;PMS5003;63436;26.334;50.194;2022-12-29T07:11:54;128;109;
72793;PMS5003;63436;26.334;50.194;2022-12-29T07:14:19;123;104;
72793;PMS5003;63436;26.334;50.194;2022-12-29T07:16:45;114;99;
72793;PMS5003;63436;26.334;50.194;2022-12-29T07:19:10;113;101;
72793;PMS5003;63436;26.334;50.194;2022-12-29T07:21:36;112;94;
72793;PMS5003;63436;26.334;50.194;2022-12-29T07:24:01;115;109;
72793;PMS5003;63436;26.334;50.194;2022-12-29T07:26:26;112;101;
72793;PMS5003;63436;26.334;50.194;2022-12-29T07:28:52;118;108;
72793;PMS5003;63436;26.334;50.194;2022-12-29T07:31:19;110;102;
72793;PMS5003;63436;26.334;50.194;2022-12-29T07:33:44;108;100;
72793;PMS5003;63436;26.334;50.194;2022-12-29T07:36:09;106;96;
72793;PMS5003;63436;26.334;50.194;2022-12-29T07:38:34;111;100;
72793;PMS5003;63436;26.334;50.194;2022-12-29T07:40:59;113;104;
72793;PMS5003;63436;26.334;50.194;2022-12-29T07:43:24;110;99;
72793;PMS5003;63436;26.334;50.194;2022-12-29T07:45:50;109;104;
72793;PMS5003;63436;26.334;50.194;2022-12-29T07:48:15;104;97;
72793;PMS5003;63436;26.334;50.194;2022-12-29T07:50:40;116;104;
72793;PMS5003;63436;26.334;50.194;2022-12-29T07:53:06;109;103;
72793;PMS5003;63436;26.334;50.194;2022-12-29T07:55:32;114;99;
72793;PMS5003;63436;26.334;50.194;2022-12-29T07:57:58;119;106;
72793;PMS5003;63436;26.334;50.194;2022-12-29T08:00:24;105;101;
72793;PMS5003;63436;26.334;50.194;2022-12-29T08:02:49;110;102;
72793;PMS5003;63436;26.334;50.194;2022-12-29T08:05:15;114;103;
72793;PMS5003;63436;26.334;50.194;2022-12-29T08:07:42;108;102;
72793;PMS5003;63436;26.334;50.194;2022-12-29T08:10:06;109;100;
72793;PMS5003;63436;26.334;50.194;2022-12-29T08:12:31;115;101;
72793;PMS5003;63436;26.334;50.194;2022-12-29T08:14:57;103;100;
72793;PMS5003;63436;26.334;50.194;2022-12-29T08:17:22;111;105;
72793;PMS5003;63436;26.334;50.194;2022-12-29T08:19:48;100;95;
72793;PMS5003;63436;26.334;50.194;2022-12-29T08:22:13;103;101;
72793;PMS5003;63436;26.334;50.194;2022-12-29T08:24:39;115;104;
72793;PMS5003;63436;26.334;50.194;2022-12-29T08:27:05;108;102;
72793;PMS5003;63436;26.334;50.194;2022-12-29T08:29:30;115;111;
72793;PMS5003;63436;26.334;50.194;2022-12-29T08:31:56;101;94;
72793;PMS5003;63436;26.334;50.194;2022-12-29T08:34:20;96;94;
72793;PMS5003;63436;26.334;50.194;2022-12-29T08:36:46;101;98;
72793;PMS5003;63436;26.334;50.194;2022-12-29T08:39:11;98;90;
72793;PMS5003;63436;26.334;50.194;2022-12-29T08:41:36;101;94;
72793;PMS5003;63436;26.334;50.194;2022-12-29T08:44:02;100;93;
72793;PMS5003;63436;26.334;50.194;2022-12-29T08:46:27;101;97;
72793;PMS5003;63436;26.334;50.194;2022-12-29T08:48:53;107;103;
72793;PMS5003;63436;26.334;50.194;2022-12-29T08:51:19;104;94;
72793;PMS5003;63436;26.334;50.194;2022-12-29T08:53:45;125;114;
72793;PMS5003;63436;26.334;50.194;2022-12-29T08:56:10;127;118;
72793;PMS5003;63436;26.334;50.194;2022-12-29T08:58:35;110;100;
72793;PMS5003;63436;26.334;50.194;2022-12-29T09:01:01;110;100;
72793;PMS5003;63436;26.334;50.194;2022-12-29T09:03:26;99;98;
72793;PMS5003;63436;26.334;50.194;2022-12-29T09:05:52;101;94;
72793;PMS5003;63436;26.334;50.194;2022-12-29T09:08:18;105;102;
72793;PMS5003;63436;26.334;50.194;2022-12-29T09:10:44;104;101;
72793;PMS5003;63436;26.334;50.194;2022-12-29T09:13:08;111;102;
72793;PMS5003;63436;26.334;50.194;2022-12-29T09:15:34;114;103;
72793;PMS5003;63436;26.334;50.194;2022-12-29T09:17:59;107;102;
72793;PMS5003;63436;26.334;50.194;2022-12-29T09:20:24;100;97;
72793;PMS5003;63436;26.334;50.194;2022-12-29T09:22:50;103;100;
72793;PMS5003;63436;26.334;50.194;2022-12-29T09:25:15;99;96;
72793;PMS5003;63436;26.334;50.194;2022-12-29T09:27:41;99;95;
72793;PMS5003;63436;26.334;50.194;2022-12-29T09:30:07;99;93;
72793;PMS5003;63436;26.334;50.194;2022-12-29T09:32:32;98;94;
72793;PMS5003;63436;26.334;50.194;2022-12-29T09:34:57;108;104;
72793;PMS5003;63436;26.334;50.194;2022-12-29T09:37:22;111;98;
72793;PMS5003;63436;26.334;50.194;2022-12-29T09:39:48;104;102;
72793;PMS5003;63436;26.334;50.194;2022-12-29T09:42:15;105;100;
72793;PMS5003;63436;26.334;50.194;2022-12-29T09:44:44;106;100;
72793;PMS5003;63436;26.334;50.194;2022-12-29T09:47:05;118;111;
72793;PMS5003;63436;26.334;50.194;2022-12-29T09:49:39;96;95;
72793;PMS5003;63436;26.334;50.194;2022-12-29T09:51:56;109;101;
72793;PMS5003;63436;26.334;50.194;2022-12-29T09:56:46;108;102;
72793;PMS5003;63436;26.334;50.194;2022-12-29T09:59:13;106;104;
72793;PMS5003;63436;26.334;50.194;2022-12-29T10:01:41;105;96;
72793;PMS5003;63436;26.334;50.194;2022-12-29T10:04:03;100;93;
72793;PMS5003;63436;26.334;50.194;2022-12-29T10:06:31;110;101;
72793;PMS5003;63436;26.334;50.194;2022-12-29T10:08:55;107;95;
72793;PMS5003;63436;26.334;50.194;2022-12-29T10:11:23;97;95;
72793;PMS5003;63436;26.334;50.194;2022-12-29T10:13:49;108;100;
72793;PMS5003;63436;26.334;50.194;2022-12-29T10:16:11;98;94;
72793;PMS5003;63436;26.334;50.194;2022-12-29T10:18:44;99;92;
72793;PMS5003;63436;26.334;50.194;2022-12-29T10:21:03;93;89;
72793;PMS5003;63436;26.334;50.194;2022-12-29T10:23:27;90;86;
72793;PMS5003;63436;26.334;50.194;2022-12-29T10:25:53;100;92;
72793;PMS5003;63436;26.334;50.194;2022-12-29T10:28:19;88;78;
72793;PMS5003;63436;26.334;50.194;2022-12-29T10:30:48;91;91;
72793;PMS5003;63436;26.334;50.194;2022-12-29T10:33:11;99;95;
72793;PMS5003;63436;26.334;50.194;2022-12-29T10:35:34;94;93;
72793;PMS5003;63436;26.334;50.194;2022-12-29T10:38:01;97;89;
72793;PMS5003;63436;26.334;50.194;2022-12-29T10:40:25;90;84;
72793;PMS5003;63436;26.334;50.194;2022-12-29T10:42:52;116;104;
72793;PMS5003;63436;26.334;50.194;2022-12-29T10:45:16;110;99;
72793;PMS5003;63436;26.334;50.194;2022-12-29T10:47:55;101;99;
72793;PMS5003;63436;26.334;50.194;2022-12-29T10:50:06;93;88;
72793;PMS5003;63436;26.334;50.194;2022-12-29T10:52:32;83;82;
72793;PMS5003;63436;26.334;50.194;2022-12-29T10:54:58;90;87;
72793;PMS5003;63436;26.334;50.194;2022-12-29T10:57:25;94;88;
72793;PMS5003;63436;26.334;50.194;2022-12-29T10:59:47;91;87;
72793;PMS5003;63436;26.334;50.194;2022-12-29T11:02:18;88;86;
72793;PMS5003;63436;26.334;50.194;2022-12-29T11:04:42;103;93;
72793;PMS5003;63436;26.334;50.194;2022-12-29T11:07:04;166;127;
72793;PMS5003;63436;26.334;50.194;2022-12-29T11:09:31;108;98;
72793;PMS5003;63436;26.334;50.194;2022-12-29T11:11:55;120;101;
72793;PMS5003;63436;26.334;50.194;2022-12-29T11:14:25;112;100;
72793;PMS5003;63436;26.334;50.194;2022-12-29T11:16:50;90;88;
72793;PMS5003;63436;26.334;50.194;2022-12-29T11:21:37;88;84;
72793;PMS5003;63436;26.334;50.194;2022-12-29T11:24:03;101;94;
72793;PMS5003;63436;26.334;50.194;2022-12-29T11:26:27;97;92;
72793;PMS5003;63436;26.334;50.194;2022-12-29T11:31:20;123;112;
72793;PMS5003;63436;26.334;50.194;2022-12-29T11:33:44;113;106;
72793;PMS5003;63436;26.334;50.194;2022-12-29T11:36:11;100;95;
72793;PMS5003;63436;26.334;50.194;2022-12-29T11:38:35;96;94;
72793;PMS5003;63436;26.334;50.194;2022-12-29T11:41:00;111;101;
72793;PMS5003;63436;26.334;50.194;2022-12-29T11:43:26;101;98;
72793;PMS5003;63436;26.334;50.194;2022-12-29T11:45:51;104;99;
72793;PMS5003;63436;26.334;50.194;2022-12-29T11:48:17;111;108;
72793;PMS5003;63436;26.334;50.194;2022-12-29T11:50:42;108;102;
72793;PMS5003;63436;26.334;50.194;2022-12-29T11:53:13;99;98;
72793;PMS5003;63436;26.334;50.194;2022-12-29T11:55:34;100;94;
72793;PMS5003;63436;26.334;50.194;2022-12-29T11:58:01;101;99;
72793;PMS5003;63436;26.334;50.194;2022-12-29T12:00:25;96;93;
72793;PMS5003;63436;26.334;50.194;2022-12-29T12:02:53;106;97;
72793;PMS5003;63436;26.334;50.194;2022-12-29T12:05:21;98;96;
72793;PMS5003;63436;26.334;50.194;2022-12-29T12:07:42;105;102;
72793;PMS5003;63436;26.334;50.194;2022-12-29T12:10:12;105;102;
72793;PMS5003;63436;26.334;50.194;2022-12-29T12:12:34;104;104;
72793;PMS5003;63436;26.334;50.194;2022-12-29T12:14:58;115;108;
72793;PMS5003;63436;26.334;50.194;2022-12-29T12:17:25;105;103;
72793;PMS5003;63436;26.334;50.194;2022-12-29T12:19:52;108;101;
72793;PMS5003;63436;26.334;50.194;2022-12-29T12:22:19;110;103;
72793;PMS5003;63436;26.334;50.194;2022-12-29T12:24:42;108;105;
72793;PMS5003;63436;26.334;50.194;2022-12-29T12:27:09;110;105;
72793;PMS5003;63436;26.334;50.194;2022-12-29T12:29:34;108;103;
72793;PMS5003;63436;26.334;50.194;2022-12-29T12:31:59;111;106;
72793;PMS5003;63436;26.334;50.194;2022-12-29T12:34:23;113;109;
72793;PMS5003;63436;26.334;50.194;2022-12-29T12:36:57;111;107;
72793;PMS5003;63436;26.334;50.194;2022-12-29T12:39:17;106;101;
72793;PMS5003;63436;26.334;50.194;2022-12-29T12:41:43;113;107;
72793;PMS5003;63436;26.334;50.194;2022-12-29T12:44:06;120;113;
72793;PMS5003;63436;26.334;50.194;2022-12-29T12:46:40;112;108;
72793;PMS5003;63436;26.334;50.194;2022-12-29T12:49:01;116;109;
72793;PMS5003;63436;26.334;50.194;2022-12-29T12:51:23;117;115;
72793;PMS5003;63436;26.334;50.194;2022-12-29T12:53:50;117;113;
72793;PMS5003;63436;26.334;50.194;2022-12-29T12:56:20;121;120;
72793;PMS5003;63436;26.334;50.194;2022-12-29T12:58:40;117;112;
72793;PMS5003;63436;26.334;50.194;2022-12-29T13:01:11;126;122;
72793;PMS5003;63436;26.334;50.194;2022-12-29T13:03:31;119;108;
72793;PMS5003;63436;26.334;50.194;2022-12-29T13:06:00;115;113;
72793;PMS5003;63436;26.334;50.194;2022-12-29T13:08:25;124;111;
72793;PMS5003;63436;26.334;50.194;2022-12-29T13:10:47;124;120;
72793;PMS5003;63436;26.334;50.194;2022-12-29T13:13:16;132;124;
72793;PMS5003;63436;26.334;50.194;2022-12-29T13:15:39;120;115;
72793;PMS5003;63436;26.334;50.194;2022-12-29T13:18:03;111;111;
72793;PMS5003;63436;26.334;50.194;2022-12-29T13:20:29;118;116;
72793;PMS5003;63436;26.334;50.194;2022-12-29T13:22:54;121;115;
72793;PMS5003;63436;26.334;50.194;2022-12-29T13:25:21;124;120;
72793;PMS5003;63436;26.334;50.194;2022-12-29T13:27:44;121;117;
72793;PMS5003;63436;26.334;50.194;2022-12-29T13:30:09;123;112;
72793;PMS5003;63436;26.334;50.194;2022-12-29T13:32:40;129;120;
72793;PMS5003;63436;26.334;50.194;2022-12-29T13:35:04;123;115;
72793;PMS5003;63436;26.334;50.194;2022-12-29T13:37:26;119;117;
72793;PMS5003;63436;26.334;50.194;2022-12-29T13:39:52;121;117;
72793;PMS5003;63436;26.334;50.194;2022-12-29T13:42:16;122;112;
72793;PMS5003;63436;26.334;50.194;2022-12-29T13:44:43;123;117;
72793;PMS5003;63436;26.334;50.194;2022-12-29T13:47:11;121;117;
72793;PMS5003;63436;26.334;50.194;2022-12-29T13:49:33;117;113;
72793;PMS5003;63436;26.334;50.194;2022-12-29T13:52:03;119;114;
72793;PMS5003;63436;26.334;50.194;2022-12-29T13:54:27;115;111;
72793;PMS5003;63436;26.334;50.194;2022-12-29T13:56:51;122;119;
72793;PMS5003;63436;26.334;50.194;2022-12-29T13:59:17;121;116;
72793;PMS5003;63436;26.334;50.194;2022-12-29T14:01:43;125;118;
72793;PMS5003;63436;26.334;50.194;2022-12-29T14:04:09;127;122;
72793;PMS5003;63436;26.334;50.194;2022-12-29T14:06:33;123;118;
72793;PMS5003;63436;26.334;50.194;2022-12-29T14:08:57;121;115;
72793;PMS5003;63436;26.334;50.194;2022-12-29T14:11:23;131;123;
72793;PMS5003;63436;26.334;50.194;2022-12-29T14:13:48;120;116;
72793;PMS5003;63436;26.334;50.194;2022-12-29T14:18:41;125;119;
72793;PMS5003;63436;26.334;50.194;2022-12-29T14:21:07;124;120;
72793;PMS5003;63436;26.334;50.194;2022-12-29T14:23:36;122;118;
72793;PMS5003;63436;26.334;50.194;2022-12-29T14:25:57;118;114;
72793;PMS5003;63436;26.334;50.194;2022-12-29T14:28:22;134;129;
72793;PMS5003;63436;26.334;50.194;2022-12-29T14:30:48;120;116;
72793;PMS5003;63436;26.334;50.194;2022-12-29T14:33:13;131;125;
72793;PMS5003;63436;26.334;50.194;2022-12-29T14:35:39;124;120;
72793;PMS5003;63436;26.334;50.194;2022-12-29T14:40:29;131;123;
72793;PMS5003;63436;26.334;50.194;2022-12-29T14:42:55;129;126;
72793;PMS5003;63436;26.334;50.194;2022-12-29T14:45:26;117;113;
72793;PMS5003;63436;26.334;50.194;2022-12-29T14:47:46;130;121;
72793;PMS5003;63436;26.334;50.194;2022-12-29T14:50:13;136;126;
72793;PMS5003;63436;26.334;50.194;2022-12-29T14:52:42;125;121;
72793;PMS5003;63436;26.334;50.194;2022-12-29T14:57:29;128;121;
72793;PMS5003;63436;26.334;50.194;2022-12-29T14:59:53;127;122;
72793;PMS5003;63436;26.334;50.194;2022-12-29T15:02:20;122;120;
72793;PMS5003;63436;26.334;50.194;2022-12-29T15:04:44;122;116;
72793;PMS5003;63436;26.334;50.194;2022-12-29T15:07:09;121;115;
72793;PMS5003;63436;26.334;50.194;2022-12-29T15:09:35;113;112;
72793;PMS5003;63436;26.334;50.194;2022-12-29T15:12:01;122;116;
72793;PMS5003;63436;26.334;50.194;2022-12-29T15:14:31;120;120;
72793;PMS5003;63436;26.334;50.194;2022-12-29T15:16:50;118;113;
72793;PMS5003;63436;26.334;50.194;2022-12-29T15:19:21;123;117;
72793;PMS5003;63436;26.334;50.194;2022-12-29T15:21:42;116;115;
72793;PMS5003;63436;26.334;50.194;2022-12-29T15:24:09;113;113;
72793;PMS5003;63436;26.334;50.194;2022-12-29T15:26:36;125;123;
72793;PMS5003;63436;26.334;50.194;2022-12-29T15:28:58;120;112;
72793;PMS5003;63436;26.334;50.194;2022-12-29T15:31:24;122;117;
72793;PMS5003;63436;26.334;50.194;2022-12-29T15:33:50;120;117;
72793;PMS5003;63436;26.334;50.194;2022-12-29T15:36:17;125;122;
72793;PMS5003;63436;26.334;50.194;2022-12-29T15:38:39;124;117;
72793;PMS5003;63436;26.334;50.194;2022-12-29T15:41:05;132;123;
72793;PMS5003;63436;26.334;50.194;2022-12-29T15:43:34;128;116;
72793;PMS5003;63436;26.334;50.194;2022-12-29T15:45:56;119;109;
72793;PMS5003;63436;26.334;50.194;2022-12-29T15:48:22;121;117;